sensor_id;sensor_type;location;lat;lon;timestamp;pressure;altitude;pressure_sealevel;temperature;humidity
9695;BME280;4690;52.422;13.486;2023-03-01T00:06:28;102855.13;;;-0.08;71.60
9695;BME280;4690;52.422;13.486;2023-03-01T00:08:54;102851.75;;;-0.12;71.61
9695;BME280;4690;52.422;13.486;2023-03-01T00:11:25;102847.44;;;-0.14;72.01
9695;BME280;4690;52.422;13.486;2023-03-01T00:13:55;102849.47;;;-0.18;71.76
9695;BME280;4690;52.422;13.486;2023-03-01T00:16:25;102846.13;;;-0.21;71.44
9695;BME280;4690;52.422;13.486;2023-03-01T00:18:53;102839.22;;;-0.26;72.02
9695;BME280;4690;52.422;13.486;2023-03-01T00:21:21;102837.72;;;-0.30;72.12
9695;BME280;4690;52.422;13.486;2023-03-01T00:23:49;102834.94;;;-0.28;72.13
9695;BME280;4690;52.422;13.486;2023-03-01T00:26:16;102838.56;;;-0.29;72.69
9695;BME280;4690;52.422;13.486;2023-03-01T00:28:43;102835.09;;;-0.31;72.26
9695;BME280;4690;52.422;13.486;2023-03-01T00:31:17;102835.44;;;-0.36;71.90
9695;BME280;4690;52.422;13.486;2023-03-01T00:33:44;102843.53;;;-0.36;72.20
9695;BME280;4690;52.422;13.486;2023-03-01T00:36:13;102833.69;;;-0.37;72.25
9695;BME280;4690;52.422;13.486;2023-03-01T00:38:43;102833.03;;;-0.40;72.54
9695;BME280;4690;52.422;13.486;2023-03-01T00:41:14;102823.25;;;-0.41;72.12
9695;BME280;4690;52.422;13.486;2023-03-01T00:43:40;102828.72;;;-0.43;72.60
9695;BME280;4690;52.422;13.486;2023-03-01T00:46:15;102832.47;;;-0.46;72.32
9695;BME280;4690;52.422;13.486;2023-03-01T00:48:41;102822.91;;;-0.50;72.94
9695;BME280;4690;52.422;13.486;2023-03-01T00:51:23;102817.72;;;-0.53;72.46
9695;BME280;4690;52.422;13.486;2023-03-01T00:53:55;102821.38;;;-0.54;72.58
9695;BME280;4690;52.422;13.486;2023-03-01T00:56:23;102818.88;;;-0.57;72.68
9695;BME280;4690;52.422;13.486;2023-03-01T00:58:49;102818.16;;;-0.59;72.67
9695;BME280;4690;52.422;13.486;2023-03-01T01:01:18;102817.25;;;-0.59;72.86
9695;BME280;4690;52.422;13.486;2023-03-01T01:04:16;102818.44;;;-0.63;72.62
9695;BME280;4690;52.422;13.486;2023-03-01T01:06:45;102814.97;;;-0.65;73.37
9695;BME280;4690;52.422;13.486;2023-03-01T01:09:16;102810.66;;;-0.68;73.41
9695;BME280;4690;52.422;13.486;2023-03-01T01:11:47;102805.28;;;-0.68;73.65
9695;BME280;4690;52.422;13.486;2023-03-01T01:14:14;102807.97;;;-0.68;73.12
9695;BME280;4690;52.422;13.486;2023-03-01T01:16:40;102800.00;;;-0.70;73.03
9695;BME280;4690;52.422;13.486;2023-03-01T01:19:06;102810.88;;;-0.71;73.01
9695;BME280;4690;52.422;13.486;2023-03-01T01:21:32;102797.31;;;-0.70;73.68
9695;BME280;4690;52.422;13.486;2023-03-01T01:23:58;102799.03;;;-0.69;73.41
9695;BME280;4690;52.422;13.486;2023-03-01T01:26:28;102792.03;;;-0.71;73.39
9695;BME280;4690;52.422;13.486;2023-03-01T01:28:55;102800.22;;;-0.73;73.42
9695;BME280;4690;52.422;13.486;2023-03-01T01:31:23;102794.16;;;-0.76;73.25
9695;BME280;4690;52.422;13.486;2023-03-01T01:33:51;102791.66;;;-0.79;73.07
9695;BME280;4690;52.422;13.486;2023-03-01T01:36:17;102797.38;;;-0.84;73.65
9695;BME280;4690;52.422;13.486;2023-03-01T01:38:43;102786.03;;;-0.89;73.49
9695;BME280;4690;52.422;13.486;2023-03-01T01:41:11;102782.91;;;-0.96;73.99
9695;BME280;4690;52.422;13.486;2023-03-01T01:43:44;102782.19;;;-1.12;74.45
9695;BME280;4690;52.422;13.486;2023-03-01T01:46:29;102782.59;;;-1.18;74.77
9695;BME280;4690;52.422;13.486;2023-03-01T01:49:03;102780.34;;;-1.11;74.79
9695;BME280;4690;52.422;13.486;2023-03-01T01:51:35;102790.47;;;-1.15;75.04
9695;BME280;4690;52.422;13.486;2023-03-01T01:54:10;102788.47;;;-1.26;75.03
9695;BME280;4690;52.422;13.486;2023-03-01T01:56:42;102794.97;;;-1.30;75.52
9695;BME280;4690;52.422;13.486;2023-03-01T01:59:09;102798.00;;;-1.34;75.38
9695;BME280;4690;52.422;13.486;2023-03-01T02:01:35;102801.13;;;-1.28;75.69
9695;BME280;4690;52.422;13.486;2023-03-01T02:04:01;102797.31;;;-1.24;75.21
9695;BME280;4690;52.422;13.486;2023-03-01T02:06:55;102792.78;;;-1.23;75.09
9695;BME280;4690;52.422;13.486;2023-03-01T02:09:23;102790.53;;;-1.17;75.05
9695;BME280;4690;52.422;13.486;2023-03-01T02:11:51;102795.72;;;-1.14;74.91
9695;BME280;4690;52.422;13.486;2023-03-01T02:14:17;102787.44;;;-1.10;74.36
9695;BME280;4690;52.422;13.486;2023-03-01T02:16:44;102793.88;;;-1.13;74.20
9695;BME280;4690;52.422;13.486;2023-03-01T02:19:23;102783.72;;;-1.22;74.30
9695;BME280;4690;52.422;13.486;2023-03-01T02:24:29;102786.06;;;-1.30;74.64
9695;BME280;4690;52.422;13.486;2023-03-01T02:26:58;102777.91;;;-1.29;75.33
9695;BME280;4690;52.422;13.486;2023-03-01T02:29:25;102775.63;;;-1.35;75.10
9695;BME280;4690;52.422;13.486;2023-03-01T02:31:54;102780.88;;;-1.33;75.33
9695;BME280;4690;52.422;13.486;2023-03-01T02:34:24;102781.72;;;-1.33;75.01
9695;BME280;4690;52.422;13.486;2023-03-01T02:36:57;102779.16;;;-1.34;75.30
9695;BME280;4690;52.422;13.486;2023-03-01T02:39:38;102794.44;;;-1.35;75.06
9695;BME280;4690;52.422;13.486;2023-03-01T02:42:13;102786.44;;;-1.37;74.89
9695;BME280;4690;52.422;13.486;2023-03-01T02:44:40;102792.81;;;-1.38;75.19
9695;BME280;4690;52.422;13.486;2023-03-01T02:47:06;102793.00;;;-1.41;74.93
9695;BME280;4690;52.422;13.486;2023-03-01T02:49:37;102794.81;;;-1.41;74.79
9695;BME280;4690;52.422;13.486;2023-03-01T02:55:01;102790.47;;;-1.44;74.86
9695;BME280;4690;52.422;13.486;2023-03-01T02:57:30;102789.63;;;-1.44;74.74
9695;BME280;4690;52.422;13.486;2023-03-01T03:00:00;102786.19;;;-1.46;74.81
9695;BME280;4690;52.422;13.486;2023-03-01T03:02:32;102775.81;;;-1.52;75.07
9695;BME280;4690;52.422;13.486;2023-03-01T03:05:09;102767.84;;;-1.54;75.47
9695;BME280;4690;52.422;13.486;2023-03-01T03:07:38;102776.59;;;-1.50;75.43
9695;BME280;4690;52.422;13.486;2023-03-01T03:10:12;102763.34;;;-1.53;75.30
9695;BME280;4690;52.422;13.486;2023-03-01T03:12:38;102768.78;;;-1.55;75.65
9695;BME280;4690;52.422;13.486;2023-03-01T03:15:07;102775.16;;;-1.56;75.19
9695;BME280;4690;52.422;13.486;2023-03-01T03:17:40;102765.56;;;-1.60;75.46
9695;BME280;4690;52.422;13.486;2023-03-01T03:20:11;102775.81;;;-1.67;75.91
9695;BME280;4690;52.422;13.486;2023-03-01T03:22:40;102772.38;;;-1.69;75.91
9695;BME280;4690;52.422;13.486;2023-03-01T03:25:09;102777.66;;;-1.67;76.05
9695;BME280;4690;52.422;13.486;2023-03-01T03:27:37;102767.00;;;-1.69;76.04
9695;BME280;4690;52.422;13.486;2023-03-01T03:30:06;102769.59;;;-1.67;75.60
9695;BME280;4690;52.422;13.486;2023-03-01T03:32:35;102766.91;;;-1.67;75.27
9695;BME280;4690;52.422;13.486;2023-03-01T03:35:04;102763.56;;;-1.71;75.75
9695;BME280;4690;52.422;13.486;2023-03-01T03:37:40;102750.31;;;-1.74;75.77
9695;BME280;4690;52.422;13.486;2023-03-01T03:40:25;102750.13;;;-1.71;75.52
9695;BME280;4690;52.422;13.486;2023-03-01T03:42:51;102750.19;;;-1.72;75.28
9695;BME280;4690;52.422;13.486;2023-03-01T03:45:18;102745.13;;;-1.77;75.63
9695;BME280;4690;52.422;13.486;2023-03-01T03:47:44;102740.91;;;-1.81;76.18
9695;BME280;4690;52.422;13.486;2023-03-01T03:50:12;102746.19;;;-1.79;75.69
9695;BME280;4690;52.422;13.486;2023-03-01T03:52:38;102740.91;;;-1.81;76.30
9695;BME280;4690;52.422;13.486;2023-03-01T03:55:06;102737.44;;;-1.83;75.73
9695;BME280;4690;52.422;13.486;2023-03-01T03:57:37;102740.31;;;-1.86;75.95
9695;BME280;4690;52.422;13.486;2023-03-01T04:00:05;102741.56;;;-1.92;76.00
9695;BME280;4690;52.422;13.486;2023-03-01T04:02:45;102742.81;;;-1.97;76.09
9695;BME280;4690;52.422;13.486;2023-03-01T04:05:14;102735.72;;;-1.98;76.04
9695;BME280;4690;52.422;13.486;2023-03-01T04:07:42;102737.75;;;-2.02;75.80
9695;BME280;4690;52.422;13.486;2023-03-01T04:10:15;102726.03;;;-2.15;76.79
9695;BME280;4690;52.422;13.486;2023-03-01T04:12:41;102732.91;;;-2.11;76.90
9695;BME280;4690;52.422;13.486;2023-03-01T04:15:10;102748.75;;;-2.07;76.75
9695;BME280;4690;52.422;13.486;2023-03-01T04:17:46;102735.53;;;-2.10;76.58
9695;BME280;4690;52.422;13.486;2023-03-01T04:20:16;102734.47;;;-2.07;76.26
9695;BME280;4690;52.422;13.486;2023-03-01T04:25:58;102739.06;;;-2.09;76.27
9695;BME280;4690;52.422;13.486;2023-03-01T04:28:31;102727.56;;;-2.11;76.40
9695;BME280;4690;52.422;13.486;2023-03-01T04:31:14;102730.06;;;-2.08;75.95
9695;BME280;4690;52.422;13.486;2023-03-01T04:33:53;102726.69;;;-2.12;75.95
9695;BME280;4690;52.422;13.486;2023-03-01T04:36:27;102725.06;;;-2.14;75.95
9695;BME280;4690;52.422;13.486;2023-03-01T04:38:54;102725.38;;;-2.19;75.92
9695;BME280;4690;52.422;13.486;2023-03-01T04:41:22;102721.97;;;-2.22;nan
9695;BME280;4690;52.422;13.486;2023-03-01T04:43:49;102722.16;;;-2.26;76.81
9695;BME280;4690;52.422;13.486;2023-03-01T04:46:18;102729.38;;;-2.26;76.75
9695;BME280;4690;52.422;13.486;2023-03-01T04:48:45;102720.38;;;-2.25;76.86
9695;BME280;4690;52.422;13.486;2023-03-01T04:51:12;102722.69;;;-2.19;76.70
9695;BME280;4690;52.422;13.486;2023-03-01T04:53:42;102724.19;;;-2.15;76.22
9695;BME280;4690;52.422;13.486;2023-03-01T04:56:09;102722.47;;;-2.16;76.31
9695;BME280;4690;52.422;13.486;2023-03-01T04:58:35;102727.19;;;-2.19;76.54
9695;BME280;4690;52.422;13.486;2023-03-01T05:01:01;102727.19;;;-2.19;76.70
9695;BME280;4690;52.422;13.486;2023-03-01T05:03:27;102722.94;;;-2.23;76.54
9695;BME280;4690;52.422;13.486;2023-03-01T05:05:53;102725.56;;;-2.22;76.56
9695;BME280;4690;52.422;13.486;2023-03-01T05:08:19;102726.22;;;-2.18;76.58
9695;BME280;4690;52.422;13.486;2023-03-01T05:10:51;102723.91;;;-2.24;76.41
9695;BME280;4690;52.422;13.486;2023-03-01T05:13:18;102725.75;;;-2.25;76.02
9695;BME280;4690;52.422;13.486;2023-03-01T05:15:56;102727.00;;;-2.31;76.48
9695;BME280;4690;52.422;13.486;2023-03-01T05:18:28;102722.66;;;-2.33;76.57
9695;BME280;4690;52.422;13.486;2023-03-01T05:20:55;102724.38;;;-2.32;76.66
9695;BME280;4690;52.422;13.486;2023-03-01T05:23:24;102720.19;;;-2.36;76.05
9695;BME280;4690;52.422;13.486;2023-03-01T05:25:51;102731.97;;;-2.39;76.97
9695;BME280;4690;52.422;13.486;2023-03-01T05:28:19;102727.63;;;-2.41;76.75
9695;BME280;4690;52.422;13.486;2023-03-01T05:30:46;102726.06;;;-2.45;76.64
9695;BME280;4690;52.422;13.486;2023-03-01T05:33:12;102718.88;;;-2.45;77.09
9695;BME280;4690;52.422;13.486;2023-03-01T05:35:43;102712.78;;;-2.47;76.95
9695;BME280;4690;52.422;13.486;2023-03-01T05:38:12;102713.63;;;-2.46;77.21
9695;BME280;4690;52.422;13.486;2023-03-01T05:40:46;102708.25;;;-2.46;76.92
9695;BME280;4690;52.422;13.486;2023-03-01T05:43:16;102715.72;;;-2.52;76.73
9695;BME280;4690;52.422;13.486;2023-03-01T05:45:43;102706.69;;;-2.51;77.35
9695;BME280;4690;52.422;13.486;2023-03-01T05:48:10;102708.72;;;-2.54;77.45
9695;BME280;4690;52.422;13.486;2023-03-01T05:50:41;102715.06;;;-2.55;77.53
9695;BME280;4690;52.422;13.486;2023-03-01T05:53:17;102707.94;;;-2.56;77.06
9695;BME280;4690;52.422;13.486;2023-03-01T05:55:43;102719.44;;;-2.54;77.14
9695;BME280;4690;52.422;13.486;2023-03-01T05:58:21;102718.59;;;-2.55;77.23
9695;BME280;4690;52.422;13.486;2023-03-01T06:00:48;102728.09;;;-2.49;77.04
9695;BME280;4690;52.422;13.486;2023-03-01T06:03:16;102711.22;;;-2.51;76.61
9695;BME280;4690;52.422;13.486;2023-03-01T06:05:43;102709.50;;;-2.52;76.89
9695;BME280;4690;52.422;13.486;2023-03-01T06:08:11;102713.63;;;-2.46;76.83
9695;BME280;4690;52.422;13.486;2023-03-01T06:10:37;102712.97;;;-2.50;77.23
9695;BME280;4690;52.422;13.486;2023-03-01T06:13:03;102718.03;;;-2.45;77.14
9695;BME280;4690;52.422;13.486;2023-03-01T06:15:29;102715.94;;;-2.40;76.89
9695;BME280;4690;52.422;13.486;2023-03-01T06:17:55;102717.50;;;-2.36;77.12
9695;BME280;4690;52.422;13.486;2023-03-01T06:20:28;102710.09;;;-2.33;77.07
9695;BME280;4690;52.422;13.486;2023-03-01T06:22:54;102711.63;;;-2.29;76.60
9695;BME280;4690;52.422;13.486;2023-03-01T06:25:24;102713.84;;;-2.21;76.58
9695;BME280;4690;52.422;13.486;2023-03-01T06:27:50;102708.28;;;-2.18;76.84
9695;BME280;4690;52.422;13.486;2023-03-01T06:30:19;102710.50;;;-2.10;76.60
9695;BME280;4690;52.422;13.486;2023-03-01T06:32:46;102714.16;;;-1.97;76.57
9695;BME280;4690;52.422;13.486;2023-03-01T06:35:15;102715.06;;;-1.69;76.77
9695;BME280;4690;52.422;13.486;2023-03-01T06:37:44;102715.28;;;-1.31;76.63
9695;BME280;4690;52.422;13.486;2023-03-01T06:40:11;102711.13;;;-0.95;76.18
9695;BME280;4690;52.422;13.486;2023-03-01T06:42:46;102708.41;;;-0.55;75.52
9695;BME280;4690;52.422;13.486;2023-03-01T06:45:13;102724.38;;;-0.14;74.91
9695;BME280;4690;52.422;13.486;2023-03-01T06:47:39;102721.75;;;0.23;73.09
9695;BME280;4690;52.422;13.486;2023-03-01T06:50:05;102722.84;;;0.57;72.32
9695;BME280;4690;52.422;13.486;2023-03-01T06:52:31;102718.03;;;0.98;70.59
9695;BME280;4690;52.422;13.486;2023-03-01T06:54:57;102717.47;;;1.41;68.71
9695;BME280;4690;52.422;13.486;2023-03-01T06:57:23;102710.94;;;1.90;67.29
9695;BME280;4690;52.422;13.486;2023-03-01T06:59:49;102715.25;;;2.49;66.28
9695;BME280;4690;52.422;13.486;2023-03-01T07:02:15;102712.50;;;3.03;64.08
9695;BME280;4690;52.422;13.486;2023-03-01T07:04:41;102716.13;;;3.46;62.83
9695;BME280;4690;52.422;13.486;2023-03-01T07:07:08;102726.22;;;3.86;60.95
9695;BME280;4690;52.422;13.486;2023-03-01T07:09:33;102719.47;;;4.32;59.36
9695;BME280;4690;52.422;13.486;2023-03-01T07:11:59;102719.03;;;4.86;57.36
9695;BME280;4690;52.422;13.486;2023-03-01T07:14:25;102722.63;;;5.45;56.07
9695;BME280;4690;52.422;13.486;2023-03-01T07:16:52;102721.84;;;6.01;54.08
9695;BME280;4690;52.422;13.486;2023-03-01T07:19:19;102718.59;;;6.53;51.73
9695;BME280;4690;52.422;13.486;2023-03-01T07:21:44;102726.91;;;7.07;50.35
9695;BME280;4690;52.422;13.486;2023-03-01T07:24:11;102720.69;;;7.58;49.07
9695;BME280;4690;52.422;13.486;2023-03-01T07:26:37;102726.34;;;8.09;47.68
9695;BME280;4690;52.422;13.486;2023-03-01T07:29:06;102728.13;;;8.52;46.27
9695;BME280;4690;52.422;13.486;2023-03-01T07:31:34;102723.66;;;8.94;45.50
9695;BME280;4690;52.422;13.486;2023-03-01T07:34:00;102722.19;;;9.32;44.46
9695;BME280;4690;52.422;13.486;2023-03-01T07:36:27;102724.91;;;9.65;43.14
9695;BME280;4690;52.422;13.486;2023-03-01T07:38:53;102728.81;;;9.95;42.49
9695;BME280;4690;52.422;13.486;2023-03-01T07:41:21;102714.38;;;10.18;41.98
9695;BME280;4690;52.422;13.486;2023-03-01T07:43:47;102723.63;;;10.25;41.13
9695;BME280;4690;52.422;13.486;2023-03-01T07:46:13;102715.09;;;10.03;40.91
9695;BME280;4690;52.422;13.486;2023-03-01T07:48:39;102730.88;;;9.85;40.90
9695;BME280;4690;52.422;13.486;2023-03-01T07:51:06;102724.91;;;9.81;40.90
9695;BME280;4690;52.422;13.486;2023-03-01T07:53:33;102722.34;;;9.72;41.87
9695;BME280;4690;52.422;13.486;2023-03-01T07:56:08;102724.06;;;9.56;41.82
9695;BME280;4690;52.422;13.486;2023-03-01T07:58:39;102717.38;;;9.42;42.38
9695;BME280;4690;52.422;13.486;2023-03-01T08:01:09;102719.25;;;9.26;42.79
9695;BME280;4690;52.422;13.486;2023-03-01T08:03:36;102714.09;;;9.06;42.96
9695;BME280;4690;52.422;13.486;2023-03-01T08:06:04;102721.41;;;8.89;43.28
9695;BME280;4690;52.422;13.486;2023-03-01T08:08:31;102718.34;;;8.84;43.69
9695;BME280;4690;52.422;13.486;2023-03-01T08:10:58;102718.53;;;8.91;43.72
9695;BME280;4690;52.422;13.486;2023-03-01T08:13:25;102716.50;;;9.09;43.54
9695;BME280;4690;52.422;13.486;2023-03-01T08:15:51;102709.16;;;9.34;42.77
9695;BME280;4690;52.422;13.486;2023-03-01T08:18:20;102705.03;;;9.71;42.02
9695;BME280;4690;52.422;13.486;2023-03-01T08:20:46;102706.00;;;10.11;42.04
9695;BME280;4690;52.422;13.486;2023-03-01T08:23:13;102703.94;;;10.13;40.32
9695;BME280;4690;52.422;13.486;2023-03-01T08:25:39;102701.25;;;9.97;41.08
9695;BME280;4690;52.422;13.486;2023-03-01T08:28:05;102691.09;;;10.61;39.59
9695;BME280;4690;52.422;13.486;2023-03-01T08:30:32;102693.34;;;11.12;38.99
9695;BME280;4690;52.422;13.486;2023-03-01T08:32:57;102693.53;;;11.71;37.63
9695;BME280;4690;52.422;13.486;2023-03-01T08:35:23;102696.50;;;12.22;36.75
9695;BME280;4690;52.422;13.486;2023-03-01T08:37:49;102694.22;;;12.26;35.77
9695;BME280;4690;52.422;13.486;2023-03-01T08:40:15;102694.25;;;11.88;36.96
9695;BME280;4690;52.422;13.486;2023-03-01T08:42:42;102691.16;;;12.50;36.30
9695;BME280;4690;52.422;13.486;2023-03-01T08:45:12;102690.78;;;13.11;34.42
9695;BME280;4690;52.422;13.486;2023-03-01T08:47:39;102694.03;;;13.58;33.49
9695;BME280;4690;52.422;13.486;2023-03-01T08:50:06;102687.28;;;13.39;33.80
9695;BME280;4690;52.422;13.486;2023-03-01T08:52:32;102689.22;;;13.23;34.17
9695;BME280;4690;52.422;13.486;2023-03-01T08:54:58;102688.66;;;13.50;33.53
9695;BME280;4690;52.422;13.486;2023-03-01T08:57:27;102680.59;;;13.76;33.07
9695;BME280;4690;52.422;13.486;2023-03-01T08:59:52;102679.47;;;13.71;32.55
9695;BME280;4690;52.422;13.486;2023-03-01T09:02:21;102681.13;;;13.65;31.62
9695;BME280;4690;52.422;13.486;2023-03-01T09:04:47;102684.09;;;13.63;31.90
9695;BME280;4690;52.422;13.486;2023-03-01T09:07:13;102681.22;;;13.50;31.89
9695;BME280;4690;52.422;13.486;2023-03-01T09:09:38;102673.91;;;13.85;30.56
9695;BME280;4690;52.422;13.486;2023-03-01T09:12:04;102674.25;;;14.10;30.23
9695;BME280;4690;52.422;13.486;2023-03-01T09:14:30;102672.38;;;14.18;29.64
9695;BME280;4690;52.422;13.486;2023-03-01T09:16:56;102668.91;;;14.02;29.63
9695;BME280;4690;52.422;13.486;2023-03-01T09:19:22;102669.41;;;13.84;29.74
9695;BME280;4690;52.422;13.486;2023-03-01T09:21:48;102661.44;;;13.68;30.16
9695;BME280;4690;52.422;13.486;2023-03-01T09:24:22;102655.94;;;13.68;30.07
9695;BME280;4690;52.422;13.486;2023-03-01T09:26:49;102663.22;;;13.76;29.95
9695;BME280;4690;52.422;13.486;2023-03-01T09:29:16;102670.88;;;13.52;29.15
9695;BME280;4690;52.422;13.486;2023-03-01T09:31:42;102667.72;;;13.55;29.74
9695;BME280;4690;52.422;13.486;2023-03-01T09:34:09;102664.53;;;13.52;29.89
9695;BME280;4690;52.422;13.486;2023-03-01T09:36:35;102667.69;;;13.27;29.52
9695;BME280;4690;52.422;13.486;2023-03-01T09:39:02;102660.69;;;12.88;30.34
9695;BME280;4690;52.422;13.486;2023-03-01T09:41:59;102656.56;;;12.77;30.57
9695;BME280;4690;52.422;13.486;2023-03-01T09:44:55;102658.66;;;11.42;32.58
9695;BME280;4690;52.422;13.486;2023-03-01T09:47:41;102659.56;;;11.72;31.64
9695;BME280;4690;52.422;13.486;2023-03-01T09:50:18;102656.44;;;11.37;33.97
9695;BME280;4690;52.422;13.486;2023-03-01T09:53:06;102654.38;;;11.39;32.68
9695;BME280;4690;52.422;13.486;2023-03-01T10:01:35;102655.66;;;10.60;33.20
9695;BME280;4690;52.422;13.486;2023-03-01T10:06:45;102658.66;;;9.86;33.96
9695;BME280;4690;52.422;13.486;2023-03-01T10:09:17;102662.28;;;9.62;35.07
9695;BME280;4690;52.422;13.486;2023-03-01T10:11:49;102654.09;;;9.37;34.92
9695;BME280;4690;52.422;13.486;2023-03-01T10:14:48;102660.78;;;9.18;36.19
9695;BME280;4690;52.422;13.486;2023-03-01T10:20:30;102662.63;;;8.85;37.39
9695;BME280;4690;52.422;13.486;2023-03-01T10:22:58;102662.31;;;8.96;37.19
9695;BME280;4690;52.422;13.486;2023-03-01T10:28:35;102664.81;;;8.23;36.60
9695;BME280;4690;52.422;13.486;2023-03-01T10:31:04;102662.00;;;8.41;38.23
9695;BME280;4690;52.422;13.486;2023-03-01T10:33:37;102652.03;;;8.82;37.66
9695;BME280;4690;52.422;13.486;2023-03-01T10:36:05;102644.53;;;9.09;36.98
9695;BME280;4690;52.422;13.486;2023-03-01T10:38:53;102647.03;;;8.69;37.71
9695;BME280;4690;52.422;13.486;2023-03-01T10:41:22;102639.38;;;8.73;37.86
9695;BME280;4690;52.422;13.486;2023-03-01T10:43:57;102638.34;;;8.74;37.47
9695;BME280;4690;52.422;13.486;2023-03-01T10:46:35;102640.09;;;9.00;37.00
9695;BME280;4690;52.422;13.486;2023-03-01T10:49:20;102635.47;;;9.41;35.33
9695;BME280;4690;52.422;13.486;2023-03-01T10:51:52;102634.06;;;9.61;34.64
9695;BME280;4690;52.422;13.486;2023-03-01T10:54:32;102636.53;;;9.96;33.57
9695;BME280;4690;52.422;13.486;2023-03-01T10:57:02;102632.84;;;9.80;33.27
9695;BME280;4690;52.422;13.486;2023-03-01T10:59:38;102629.41;;;9.78;32.80
9695;BME280;4690;52.422;13.486;2023-03-01T11:02:28;102624.84;;;10.10;32.91
9695;BME280;4690;52.422;13.486;2023-03-01T11:08:06;102611.69;;;10.05;32.42
9695;BME280;4690;52.422;13.486;2023-03-01T11:10:36;102602.03;;;10.80;32.35
9695;BME280;4690;52.422;13.486;2023-03-01T11:13:14;102604.28;;;10.99;30.45
9695;BME280;4690;52.422;13.486;2023-03-01T11:15:42;102602.84;;;12.09;29.12
9695;BME280;4690;52.422;13.486;2023-03-01T11:18:22;102595.91;;;12.64;27.67
9695;BME280;4690;52.422;13.486;2023-03-01T11:20:53;102601.47;;;13.35;25.47
9695;BME280;4690;52.422;13.486;2023-03-01T11:23:22;102591.63;;;14.30;24.52
9695;BME280;4690;52.422;13.486;2023-03-01T11:26:01;102578.06;;;13.87;24.91
9695;BME280;4690;52.422;13.486;2023-03-01T11:28:29;102586.63;;;13.64;26.09
9695;BME280;4690;52.422;13.486;2023-03-01T11:31:05;102585.88;;;13.77;25.74
9695;BME280;4690;52.422;13.486;2023-03-01T11:34:05;102575.81;;;14.04;25.72
9695;BME280;4690;52.422;13.486;2023-03-01T11:36:49;102571.84;;;14.82;25.39
9695;BME280;4690;52.422;13.486;2023-03-01T11:45:16;102569.84;;;17.10;22.26
9695;BME280;4690;52.422;13.486;2023-03-01T11:48:21;102567.91;;;17.36;22.29
9695;BME280;4690;52.422;13.486;2023-03-01T11:50:54;102575.13;;;17.99;22.58
9695;BME280;4690;52.422;13.486;2023-03-01T11:56:35;102580.63;;;18.05;21.11
9695;BME280;4690;52.422;13.486;2023-03-01T12:08:05;102566.94;;;16.98;21.02
9695;BME280;4690;52.422;13.486;2023-03-01T12:10:57;102569.75;;;16.15;21.46
9695;BME280;4690;52.422;13.486;2023-03-01T12:13:57;102560.69;;;16.40;22.01
9695;BME280;4690;52.422;13.486;2023-03-01T12:26:09;102542.38;;;17.70;19.69
9695;BME280;4690;52.422;13.486;2023-03-01T12:46:04;102515.53;;;17.28;21.51
9695;BME280;4690;52.422;13.486;2023-03-01T12:51:36;102517.84;;;17.31;20.23
9695;BME280;4690;52.422;13.486;2023-03-01T12:54:15;102504.81;;;16.88;20.58
9695;BME280;4690;52.422;13.486;2023-03-01T12:56:42;102499.84;;;17.40;20.37
9695;BME280;4690;52.422;13.486;2023-03-01T13:00:17;102496.63;;;17.98;18.80
9695;BME280;4690;52.422;13.486;2023-03-01T13:02:17;102496.50;;;18.23;17.93
9695;BME280;4690;52.422;13.486;2023-03-01T13:05:23;102492.44;;;17.15;19.08
9695;BME280;4690;52.422;13.486;2023-03-01T13:08:27;102485.25;;;17.08;19.89
9695;BME280;4690;52.422;13.486;2023-03-01T13:10:58;102489.41;;;16.35;19.94
9695;BME280;4690;52.422;13.486;2023-03-01T13:13:27;102488.00;;;15.81;20.71
9695;BME280;4690;52.422;13.486;2023-03-01T13:15:55;102490.88;;;16.06;21.19
9695;BME280;4690;52.422;13.486;2023-03-01T13:20:52;102480.84;;;15.60;21.34
9695;BME280;4690;52.422;13.486;2023-03-01T13:46:56;102468.53;;;14.09;22.22
9695;BME280;4690;52.422;13.486;2023-03-01T13:49:28;102456.31;;;13.71;23.22
9695;BME280;4690;52.422;13.486;2023-03-01T13:51:55;102452.44;;;13.58;23.84
9695;BME280;4690;52.422;13.486;2023-03-01T13:54:31;102452.59;;;13.98;23.96
9695;BME280;4690;52.422;13.486;2023-03-01T13:57:00;102444.38;;;14.11;23.13
9695;BME280;4690;52.422;13.486;2023-03-01T13:59:26;102453.78;;;14.57;22.72
9695;BME280;4690;52.422;13.486;2023-03-01T14:01:58;102437.22;;;14.90;21.85
9695;BME280;4690;52.422;13.486;2023-03-01T14:04:32;102439.97;;;14.50;21.37
9695;BME280;4690;52.422;13.486;2023-03-01T14:07:22;102444.13;;;14.06;23.12
9695;BME280;4690;52.422;13.486;2023-03-01T14:09:56;102442.66;;;14.10;22.69
9695;BME280;4690;52.422;13.486;2023-03-01T14:15:22;102428.59;;;13.02;23.73
9695;BME280;4690;52.422;13.486;2023-03-01T14:18:10;102416.56;;;13.45;23.46
9695;BME280;4690;52.422;13.486;2023-03-01T14:20:42;102414.78;;;13.72;22.61
9695;BME280;4690;52.422;13.486;2023-03-01T14:23:15;102412.22;;;13.64;21.48
9695;BME280;4690;52.422;13.486;2023-03-01T14:25:55;102425.06;;;13.43;21.80
9695;BME280;4690;52.422;13.486;2023-03-01T14:28:31;102428.91;;;12.86;22.69
9695;BME280;4690;52.422;13.486;2023-03-01T14:31:01;102423.81;;;12.83;23.11
9695;BME280;4690;52.422;13.486;2023-03-01T14:33:36;102424.16;;;12.45;23.26
9695;BME280;4690;52.422;13.486;2023-03-01T14:36:10;102414.66;;;12.48;23.96
9695;BME280;4690;52.422;13.486;2023-03-01T14:38:43;102412.47;;;12.65;23.45
9695;BME280;4690;52.422;13.486;2023-03-01T14:41:21;102399.41;;;12.73;23.13
9695;BME280;4690;52.422;13.486;2023-03-01T14:43:53;102395.03;;;12.86;23.64
9695;BME280;4690;52.422;13.486;2023-03-01T14:46:26;102400.66;;;12.71;22.73
9695;BME280;4690;52.422;13.486;2023-03-01T14:49:19;102406.41;;;12.76;22.28
9695;BME280;4690;52.422;13.486;2023-03-01T14:52:05;102395.50;;;12.61;22.37
9695;BME280;4690;52.422;13.486;2023-03-01T14:54:51;102395.41;;;12.48;21.93
9695;BME280;4690;52.422;13.486;2023-03-01T14:57:26;102395.91;;;12.08;22.69
9695;BME280;4690;52.422;13.486;2023-03-01T14:59:59;102389.50;;;11.50;23.47
9695;BME280;4690;52.422;13.486;2023-03-01T15:02:30;102392.44;;;11.49;23.79
9695;BME280;4690;52.422;13.486;2023-03-01T15:05:02;102389.41;;;11.58;24.12
9695;BME280;4690;52.422;13.486;2023-03-01T15:07:34;102392.19;;;11.43;24.22
9695;BME280;4690;52.422;13.486;2023-03-01T15:10:03;102388.50;;;11.36;25.99
9695;BME280;4690;52.422;13.486;2023-03-01T15:12:37;102395.88;;;11.36;25.13